createdAt,value
2018-03-30T00:00:45.940Z,85.95
2018-03-30T00:03:14.162Z,85.78
2018-03-30T00:05:42.470Z,85.41
2018-03-30T00:08:10.727Z,85.62
2018-03-30T00:10:44.580Z,85.90
2018-03-30T00:13:13.289Z,86.50
2018-03-30T00:15:41.600Z,86.54
2018-03-30T00:18:09.955Z,86.72
2018-03-30T00:20:40.104Z,86.87
2018-03-30T00:23:08.400Z,86.70
2018-03-30T00:25:36.659Z,86.42
2018-03-30T00:28:04.917Z,86.28
2018-03-30T00:30:33.418Z,85.92
2018-03-30T00:33:01.687Z,86.04
2018-03-30T00:35:30.027Z,86.47
2018-03-30T00:38:00.899Z,86.78
2018-03-30T00:40:29.185Z,87.06
2018-03-30T00:42:58.206Z,87.34
2018-03-30T00:45:26.686Z,87.65
2018-03-30T00:47:54.904Z,87.61
2018-03-30T00:50:23.399Z,87.71
2018-03-30T00:52:51.692Z,87.68
2018-03-30T00:55:19.950Z,87.16
2018-03-30T00:57:48.176Z,87.01
2018-03-30T01:00:16.410Z,87.29
2018-03-30T01:02:45.430Z,87.29
2018-03-30T01:05:13.670Z,87.10
2018-03-30T01:07:42.943Z,86.86
2018-03-30T01:10:11.228Z,86.75
2018-03-30T01:12:39.573Z,86.74
2018-03-30T01:15:09.733Z,86.55
2018-03-30T01:17:38.211Z,86.51
2018-03-30T01:20:07.207Z,86.82
2018-03-30T01:22:37.034Z,87.16
2018-03-30T01:25:05.535Z,87.35
2018-03-30T01:27:37.162Z,88.10
2018-03-30T01:30:05.788Z,88.21
2018-03-30T01:32:35.808Z,88.21
2018-03-30T01:35:04.144Z,88.07
2018-03-30T01:37:32.377Z,87.98
2018-03-30T01:40:00.610Z,87.82
2018-03-30T01:42:29.038Z,87.52
2018-03-30T01:44:57.376Z,87.19
2018-03-30T01:47:25.659Z,86.79
2018-03-30T01:49:54.740Z,86.91
2018-03-30T01:52:24.977Z,87.76
2018-03-30T01:54:57.368Z,88.15
2018-03-30T01:57:26.759Z,88.21
2018-03-30T01:59:55.069Z,88.36
2018-03-30T02:02:24.361Z,88.36
2018-03-30T02:04:52.726Z,88.01
2018-03-30T02:07:21.119Z,87.85
2018-03-30T02:09:52.165Z,87.68
2018-03-30T02:12:20.455Z,87.53
2018-03-30T02:14:48.830Z,88.00
2018-03-30T02:17:18.896Z,88.89
2018-03-30T02:19:47.232Z,89.34
2018-03-30T02:22:17.390Z,88.92
2018-03-30T02:24:47.451Z,88.57
2018-03-30T02:27:15.911Z,88.90
2018-03-30T02:29:44.935Z,89.22
2018-03-30T02:32:14.871Z,89.41
2018-03-30T02:34:44.017Z,89.74
2018-03-30T02:37:12.322Z,89.96
2018-03-30T02:39:40.619Z,90.59
2018-03-30T02:42:08.861Z,90.62
2018-03-30T02:44:37.982Z,90.57
2018-03-30T02:47:06.284Z,90.49
2018-03-30T02:49:34.577Z,90.36
2018-03-30T02:52:02.988Z,90.21
2018-03-30T02:54:32.884Z,90.60
2018-03-30T02:57:01.236Z,91.27
2018-03-30T02:59:29.521Z,91.37
2018-03-30T03:01:57.835Z,91.29
2018-03-30T03:04:26.115Z,91.22
2018-03-30T03:06:54.646Z,90.81
2018-03-30T03:09:23.042Z,90.61
2018-03-30T03:11:51.329Z,90.82
2018-03-30T03:14:19.796Z,90.54
2018-03-30T03:16:48.816Z,90.02
2018-03-30T03:19:17.879Z,89.87
2018-03-30T03:21:47.766Z,89.71
2018-03-30T03:24:16.065Z,89.93
2018-03-30T03:26:44.454Z,90.37
2018-03-30T03:29:12.818Z,90.37
2018-03-30T03:31:41.128Z,90.28
2018-03-30T03:34:12.254Z,90.00
2018-03-30T03:36:40.661Z,89.93
2018-03-30T03:39:08.925Z,90.10
2018-03-30T03:41:37.295Z,90.37
2018-03-30T03:44:05.672Z,90.74
2018-03-30T03:46:34.033Z,91.28
2018-03-30T03:49:04.033Z,91.62
2018-03-30T03:51:32.373Z,92.13
2018-03-30T03:54:00.745Z,92.22
2018-03-30T03:56:29.957Z,92.02
2018-03-30T03:58:58.310Z,92.07
2018-03-30T04:01:26.679Z,92.33
2018-03-30T04:03:55.029Z,92.61
2018-03-30T04:06:23.490Z,92.92
2018-03-30T04:08:51.767Z,93.07
2018-03-30T04:11:20.045Z,93.12
2018-03-30T04:13:49.147Z,93.27
2018-03-30T04:16:17.446Z,93.52
2018-03-30T04:18:45.821Z,93.69
2018-03-30T04:21:14.098Z,93.78
2018-03-30T04:23:42.375Z,93.90
2018-03-30T04:26:11.423Z,93.90
2018-03-30T04:28:39.729Z,93.91
2018-03-30T04:31:08.842Z,94.00
2018-03-30T04:33:38.845Z,94.02
2018-03-30T04:36:07.230Z,94.17
2018-03-30T04:38:35.504Z,94.02
2018-03-30T04:41:06.076Z,93.79
2018-03-30T04:43:39.563Z,93.62
2018-03-30T04:46:07.950Z,93.64
2018-03-30T04:48:37.141Z,93.69
2018-03-30T04:51:05.541Z,93.68
2018-03-30T04:53:34.629Z,93.66
2018-03-30T04:56:04.705Z,93.64
2018-03-30T04:58:35.023Z,93.67
2018-03-30T05:01:04.195Z,93.61
2018-03-30T05:03:32.557Z,93.51
2018-03-30T05:06:00.958Z,93.54
2018-03-30T05:08:30.875Z,93.95
2018-03-30T05:10:59.239Z,94.00
2018-03-30T05:13:29.229Z,94.07
2018-03-30T05:15:57.644Z,94.15
2018-03-30T05:18:26.041Z,94.17
2018-03-30T05:20:54.382Z,94.34
2018-03-30T05:23:23.597Z,94.50
2018-03-30T05:25:53.699Z,94.71
2018-03-30T05:28:23.685Z,94.69
2018-03-30T05:30:52.082Z,94.60
2018-03-30T05:33:22.109Z,94.66
2018-03-30T05:35:50.498Z,94.58
2018-03-30T05:38:18.839Z,94.39
2018-03-30T05:40:50.352Z,94.31
2018-03-30T05:43:19.449Z,94.35
2018-03-30T05:45:47.736Z,94.41
2018-03-30T05:48:17.823Z,94.43
2018-03-30T05:50:46.259Z,94.52
2018-03-30T05:53:14.706Z,94.57
2018-03-30T05:55:43.299Z,94.64
2018-03-30T05:58:11.630Z,94.71
2018-03-30T06:00:41.011Z,94.79
2018-03-30T06:03:09.293Z,94.82
2018-03-30T06:05:39.746Z,94.81
2018-03-30T06:08:10.553Z,94.89
2018-03-30T06:10:38.964Z,94.91
2018-03-30T06:13:09.099Z,94.84
2018-03-30T06:15:39.041Z,94.81
2018-03-30T06:18:09.171Z,94.91
2018-03-30T06:20:37.582Z,95.06
2018-03-30T06:23:06.091Z,95.04
2018-03-30T06:25:36.088Z,94.98
2018-03-30T06:28:07.401Z,94.90
2018-03-30T06:30:37.551Z,94.87
2018-03-30T06:33:07.923Z,94.83
2018-03-30T06:35:38.480Z,94.62
2018-03-30T06:38:08.643Z,94.52
2018-03-30T06:40:37.239Z,94.39
2018-03-30T06:43:05.585Z,94.11
2018-03-30T06:45:33.987Z,93.93
2018-03-30T06:48:04.929Z,93.96
2018-03-30T06:50:36.030Z,94.06
2018-03-30T06:53:06.105Z,93.88
2018-03-30T06:55:34.552Z,93.86
2018-03-30T06:58:02.869Z,93.79
2018-03-30T07:00:31.293Z,93.62
2018-03-30T07:03:01.643Z,93.37
2018-03-30T07:05:29.999Z,93.11
2018-03-30T07:08:00.385Z,92.93
2018-03-30T07:10:31.089Z,92.55
2018-03-30T07:12:59.482Z,92.29
2018-03-30T07:15:27.831Z,92.19
2018-03-30T07:17:56.199Z,92.11
2018-03-30T07:20:26.343Z,92.12
2018-03-30T07:22:56.461Z,92.14
2018-03-30T07:25:25.700Z,92.13
2018-03-30T07:27:54.192Z,92.18
2018-03-30T07:30:22.564Z,92.19
2018-03-30T07:32:51.007Z,91.90
2018-03-30T07:35:19.385Z,91.96
2018-03-30T07:37:47.770Z,91.98
2018-03-30T07:40:16.156Z,91.54
2018-03-30T07:42:44.709Z,91.20
2018-03-30T07:45:13.057Z,91.13
2018-03-30T07:47:41.445Z,91.09
2018-03-30T07:50:09.781Z,90.97
2018-03-30T07:52:40.834Z,90.63
2018-03-30T07:55:09.228Z,89.50
2018-03-30T07:57:41.529Z,89.16
2018-03-30T08:00:09.805Z,89.26
2018-03-30T08:02:38.232Z,89.29
2018-03-30T08:05:09.634Z,88.94
2018-03-30T08:07:38.129Z,88.40
2018-03-30T08:10:06.604Z,87.62
2018-03-30T08:12:38.452Z,87.57
2018-03-30T08:15:06.833Z,86.99
2018-03-30T08:17:36.452Z,86.77
2018-03-30T08:20:04.894Z,86.40
2018-03-30T08:22:33.339Z,86.17
2018-03-30T08:25:03.588Z,86.00
2018-03-30T08:27:34.333Z,85.55
2018-03-30T08:30:02.697Z,85.56
2018-03-30T08:32:31.782Z,85.29
2018-03-30T08:35:00.142Z,85.38
2018-03-30T08:37:28.637Z,84.37
2018-03-30T08:39:56.976Z,82.98
2018-03-30T08:42:28.021Z,81.23
2018-03-30T08:44:56.431Z,80.86
2018-03-30T08:47:24.783Z,79.75
2018-03-30T08:49:53.104Z,79.41
2018-03-30T08:52:21.424Z,78.27
2018-03-30T08:54:49.831Z,77.56
2018-03-30T08:57:18.227Z,77.25
2018-03-30T08:59:46.592Z,76.74
2018-03-30T09:02:17.581Z,76.72
2018-03-30T09:04:46.175Z,76.48
2018-03-30T09:07:15.257Z,75.22
2018-03-30T09:09:49.444Z,75.80
2018-03-30T09:12:20.885Z,75.33
2018-03-30T09:14:51.229Z,75.32
2018-03-30T09:17:23.227Z,75.54
2018-03-30T09:19:53.270Z,75.41
2018-03-30T09:22:21.673Z,75.70
2018-03-30T09:24:50.134Z,75.25
2018-03-30T09:27:18.603Z,74.09
2018-03-30T09:29:55.192Z,73.94
2018-03-30T09:32:25.357Z,72.95
2018-03-30T09:34:56.173Z,72.79
2018-03-30T09:37:24.518Z,71.62
2018-03-30T09:39:55.813Z,71.82
2018-03-30T09:42:25.270Z,71.39
2018-03-30T09:44:53.630Z,71.55
2018-03-30T09:47:23.075Z,71.86
2018-03-30T09:49:51.449Z,71.36
2018-03-30T09:52:19.852Z,70.79
2018-03-30T09:54:49.832Z,71.64
2018-03-30T09:57:18.220Z,71.84
2018-03-30T09:59:48.307Z,71.08
2018-03-30T10:02:16.999Z,71.05
2018-03-30T10:04:46.074Z,70.74
2018-03-30T10:07:14.372Z,68.21
2018-03-30T10:09:42.715Z,68.84
2018-03-30T10:12:11.785Z,69.20
2018-03-30T10:14:43.241Z,69.07
2018-03-30T10:17:11.584Z,69.18
2018-03-30T10:19:41.274Z,69.43
2018-03-30T10:22:09.740Z,69.76
2018-03-30T10:24:38.179Z,68.22
2018-03-30T10:27:06.520Z,68.25
2018-03-30T10:29:34.868Z,68.22
2018-03-30T10:32:03.578Z,68.84
2018-03-30T10:34:31.939Z,69.86
2018-03-30T10:37:00.433Z,69.06
2018-03-30T10:39:29.747Z,69.31
2018-03-30T10:42:00.210Z,70.14
2018-03-30T10:44:29.534Z,70.07
2018-03-30T10:46:58.007Z,69.07
2018-03-30T10:49:26.392Z,68.63
2018-03-30T10:51:54.699Z,67.99
2018-03-30T10:54:23.002Z,68.09
2018-03-30T10:56:54.426Z,67.95
2018-03-30T10:59:22.731Z,67.50
2018-03-30T11:01:53.903Z,68.15
2018-03-30T11:04:22.425Z,68.09
2018-03-30T11:06:50.701Z,66.63
2018-03-30T11:09:19.042Z,65.52
2018-03-30T11:11:47.395Z,65.22
2018-03-30T11:14:17.404Z,66.00
2018-03-30T11:16:45.739Z,65.84
2018-03-30T11:19:14.096Z,65.76
2018-03-30T11:21:42.434Z,65.79
2018-03-30T11:24:10.754Z,65.72
2018-03-30T11:26:39.120Z,66.06
2018-03-30T11:29:07.405Z,65.80
2018-03-30T11:31:35.944Z,64.81
2018-03-30T11:34:04.379Z,64.31
2018-03-30T11:36:35.472Z,64.34
2018-03-30T11:39:03.912Z,64.34
2018-03-30T11:41:33.051Z,64.47
2018-03-30T11:44:01.419Z,63.58
2018-03-30T11:46:29.782Z,61.85
2018-03-30T11:49:00.815Z,63.13
2018-03-30T11:51:29.156Z,62.08
2018-03-30T11:53:57.547Z,60.99
2018-03-30T11:56:27.625Z,61.32
2018-03-30T11:58:56.064Z,59.84
2018-03-30T12:01:24.373Z,60.07
2018-03-30T12:03:52.688Z,59.68
2018-03-30T12:06:22.187Z,58.96
2018-03-30T12:08:50.531Z,59.41
2018-03-30T12:11:19.623Z,59.56
2018-03-30T12:13:47.970Z,58.81
2018-03-30T12:16:16.294Z,57.17
2018-03-30T12:18:45.361Z,56.22
2018-03-30T12:21:13.795Z,55.21
2018-03-30T12:23:42.961Z,53.00
2018-03-30T12:26:11.293Z,53.79
2018-03-30T12:28:39.779Z,53.34
2018-03-30T12:31:08.557Z,50.49
2018-03-30T12:33:36.897Z,49.96
2018-03-30T12:36:05.217Z,49.81
2018-03-30T12:38:33.570Z,50.12
2018-03-30T12:41:01.988Z,48.81
2018-03-30T12:43:30.269Z,48.60
2018-03-30T12:45:58.711Z,48.79
2018-03-30T12:48:27.707Z,50.00
2018-03-30T12:50:57.782Z,47.74
2018-03-30T12:53:26.474Z,48.94
2018-03-30T12:55:56.122Z,47.70
2018-03-30T12:58:24.654Z,48.42
2018-03-30T13:00:53.282Z,48.46
2018-03-30T13:03:21.641Z,48.41
2018-03-30T13:05:52.025Z,48.32
2018-03-30T13:08:23.474Z,47.66
2018-03-30T13:10:51.832Z,47.98
2018-03-30T13:13:20.166Z,49.10
2018-03-30T13:15:48.506Z,48.83
2018-03-30T13:18:17.728Z,48.17
2018-03-30T13:20:46.020Z,49.48
2018-03-30T13:23:14.359Z,50.62
2018-03-30T13:25:42.837Z,49.15
2018-03-30T13:28:11.196Z,50.36
2018-03-30T13:30:44.044Z,50.29
2018-03-30T13:33:12.421Z,50.85
2018-03-30T13:35:40.827Z,49.19
2018-03-30T13:38:09.143Z,49.37
2018-03-30T13:40:37.469Z,48.24
2018-03-30T13:43:06.178Z,49.07
2018-03-30T13:45:35.278Z,49.78
2018-03-30T13:48:03.788Z,48.92
2018-03-30T13:50:34.051Z,50.00
2018-03-30T13:53:13.715Z,49.94
2018-03-30T13:55:42.048Z,48.08
2018-03-30T13:58:13.358Z,48.33
2018-03-30T14:00:43.110Z,48.89
2018-03-30T14:03:18.198Z,49.32
2018-03-30T14:05:52.990Z,50.80
2018-03-30T14:08:27.301Z,50.88
2018-03-30T14:11:05.752Z,50.94
2018-03-30T14:13:34.863Z,49.88
2018-03-30T14:16:08.586Z,51.80
2018-03-30T14:18:45.509Z,48.00
2018-03-30T14:21:18.455Z,47.04
2018-03-30T14:23:47.656Z,45.58
2018-03-30T14:29:19.466Z,45.63
2018-03-30T14:31:50.890Z,46.19
2018-03-30T14:34:21.542Z,45.25
2018-03-30T14:36:59.967Z,45.53
2018-03-30T14:39:32.754Z,43.95
2018-03-30T14:42:01.094Z,43.99
2018-03-30T14:44:44.503Z,43.75
2018-03-30T14:47:28.402Z,43.89
2018-03-30T14:50:03.707Z,43.24
2018-03-30T15:06:36.796Z,43.85
2018-03-30T15:09:11.820Z,44.24
2018-03-30T15:25:29.789Z,48.46
2018-03-30T15:27:59.580Z,48.46
2018-03-30T15:30:37.621Z,48.72
2018-03-30T15:33:09.742Z,49.07
2018-03-30T15:36:02.133Z,49.83
2018-03-30T15:38:53.837Z,49.82
2018-03-30T15:41:46.271Z,51.25
2018-03-30T15:44:39.063Z,51.34
2018-03-30T15:47:31.492Z,51.59
2018-03-30T15:50:22.763Z,53.14
2018-03-30T15:53:14.030Z,54.63
2018-03-30T15:56:06.557Z,54.87
2018-03-30T15:58:58.291Z,55.83
2018-03-30T16:01:48.775Z,55.99
2018-03-30T16:04:40.012Z,56.37
2018-03-30T16:07:31.716Z,56.81
2018-03-30T16:10:32.191Z,57.15
2018-03-30T16:13:24.511Z,57.44
2018-03-30T16:16:15.184Z,57.64
2018-03-30T16:19:08.460Z,57.99
2018-03-30T16:21:54.686Z,58.30
2018-03-30T16:24:42.076Z,58.49
2018-03-30T16:27:28.269Z,58.84
2018-03-30T16:30:14.453Z,59.39
2018-03-30T16:33:00.585Z,59.30
2018-03-30T16:35:46.363Z,59.91
2018-03-30T16:38:32.562Z,60.31
2018-03-30T16:41:19.044Z,60.58
2018-03-30T16:44:05.211Z,60.75
2018-03-30T16:46:51.475Z,61.22
2018-03-30T16:49:37.680Z,61.43
2018-03-30T16:52:23.846Z,61.64
2018-03-30T16:55:10.061Z,61.87
2018-03-30T16:57:56.271Z,62.07
2018-03-30T17:00:43.516Z,62.44
2018-03-30T17:03:29.305Z,62.62
2018-03-30T17:06:15.508Z,63.11
2018-03-30T17:09:01.679Z,63.14
2018-03-30T17:11:47.944Z,63.78
2018-03-30T17:14:33.705Z,64.05
2018-03-30T17:17:19.859Z,64.43
2018-03-30T17:20:06.039Z,64.44
2018-03-30T17:22:52.217Z,64.86
2018-03-30T17:25:38.465Z,65.07
2018-03-30T17:28:24.613Z,65.31
2018-03-30T17:31:10.870Z,65.47
2018-03-30T17:33:57.064Z,65.78
2018-03-30T17:36:43.276Z,65.94
2018-03-30T17:39:29.398Z,66.30
2018-03-30T17:42:15.580Z,66.51
2018-03-30T17:45:01.733Z,66.67
2018-03-30T17:47:47.978Z,66.87
2018-03-30T17:50:33.908Z,67.10
2018-03-30T17:53:20.187Z,67.36
2018-03-30T17:56:06.367Z,67.48
2018-03-30T17:58:52.714Z,67.83
2018-03-30T18:01:39.925Z,68.19
2018-03-30T18:04:28.750Z,68.25
2018-03-30T18:07:14.948Z,68.52
2018-03-30T18:10:01.180Z,68.84
2018-03-30T18:12:47.349Z,68.98
2018-03-30T18:15:34.245Z,69.11
2018-03-30T18:18:20.414Z,69.52
2018-03-30T18:21:06.743Z,69.86
2018-03-30T18:23:52.639Z,70.15
2018-03-30T18:26:38.874Z,69.98
2018-03-30T18:29:25.005Z,70.46
2018-03-30T18:32:12.194Z,70.94
2018-03-30T18:34:58.022Z,71.19
2018-03-30T18:37:44.015Z,71.57
2018-03-30T18:40:30.306Z,71.92
2018-03-30T18:43:16.189Z,71.97
2018-03-30T18:46:02.311Z,72.37
2018-03-30T18:48:48.483Z,72.42
2018-03-30T18:51:34.186Z,72.70
2018-03-30T18:54:20.390Z,72.74
2018-03-30T18:57:06.867Z,72.89
2018-03-30T18:59:53.094Z,72.88
2018-03-30T19:02:38.811Z,72.89
2018-03-30T19:05:24.615Z,73.16
2018-03-30T19:08:10.885Z,73.30
2018-03-30T19:10:57.206Z,73.84
2018-03-30T19:13:42.962Z,74.32
2018-03-30T19:16:30.779Z,74.66
2018-03-30T19:19:19.444Z,74.73
2018-03-30T19:22:06.127Z,74.68
2018-03-30T19:24:52.398Z,75.25
2018-03-30T19:27:38.644Z,75.21
2018-03-30T19:30:24.848Z,75.09
2018-03-30T19:33:11.185Z,75.38
2018-03-30T19:35:57.917Z,75.79
2018-03-30T19:38:45.714Z,75.82
2018-03-30T19:41:31.960Z,76.09
2018-03-30T19:44:18.199Z,76.40
2018-03-30T19:47:04.949Z,76.56
2018-03-30T19:49:51.333Z,76.87
2018-03-30T19:52:37.314Z,77.05
2018-03-30T19:55:23.357Z,77.05
2018-03-30T19:58:09.683Z,77.34
2018-03-30T20:00:58.180Z,77.31
2018-03-30T20:03:44.512Z,77.50
2018-03-30T20:06:30.372Z,77.45
2018-03-30T20:09:16.342Z,77.42
2018-03-30T20:12:02.622Z,77.78
2018-03-30T20:14:48.920Z,77.86
2018-03-30T20:17:35.306Z,77.76
2018-03-30T20:20:21.158Z,78.04
2018-03-30T20:23:08.541Z,78.16
2018-03-30T20:25:55.006Z,78.58
2018-03-30T20:28:41.201Z,78.59
2018-03-30T20:31:27.400Z,78.67
2018-03-30T20:34:13.689Z,78.84
2018-03-30T20:36:59.490Z,79.01
2018-03-30T20:39:45.829Z,78.94
2018-03-30T20:42:32.057Z,79.09
2018-03-30T20:45:18.485Z,79.27
2018-03-30T20:48:04.433Z,79.40
2018-03-30T20:50:50.821Z,79.21
2018-03-30T20:53:36.852Z,79.11
2018-03-30T20:56:23.184Z,79.03
2018-03-30T20:59:09.224Z,79.24
2018-03-30T21:01:55.443Z,79.49
2018-03-30T21:04:41.774Z,79.51
2018-03-30T21:07:28.406Z,79.53
2018-03-30T21:10:14.656Z,79.47
2018-03-30T21:13:00.865Z,80.01
2018-03-30T21:15:47.114Z,80.06
2018-03-30T21:18:32.894Z,81.06
2018-03-30T21:21:19.165Z,81.53
2018-03-30T21:24:05.448Z,81.96
2018-03-30T21:26:51.125Z,82.36
2018-03-30T21:29:37.475Z,82.12
2018-03-30T21:32:23.304Z,82.15
2018-03-30T21:35:10.557Z,82.25
2018-03-30T21:37:57.456Z,82.19
2018-03-30T21:40:43.716Z,82.46
2018-03-30T21:43:29.943Z,82.86
2018-03-30T21:46:16.212Z,83.05
2018-03-30T21:49:02.345Z,83.20
2018-03-30T21:51:48.401Z,83.28
2018-03-30T21:54:35.723Z,83.99
2018-03-30T21:57:21.988Z,83.46
2018-03-30T22:00:07.950Z,82.68
2018-03-30T22:02:54.131Z,82.51
2018-03-30T22:05:40.156Z,82.39
2018-03-30T22:08:26.560Z,82.25
2018-03-30T22:11:12.395Z,82.32
2018-03-30T22:13:58.718Z,82.40
2018-03-30T22:16:44.867Z,82.58
2018-03-30T22:19:31.168Z,82.73
2018-03-30T22:22:16.924Z,83.07
2018-03-30T22:25:03.101Z,83.56
2018-03-30T22:27:49.278Z,83.81
2018-03-30T22:30:35.488Z,84.20
2018-03-30T22:33:21.630Z,84.28
2018-03-30T22:36:07.905Z,84.76
2018-03-30T22:38:54.103Z,84.90
2018-03-30T22:41:39.932Z,85.10
2018-03-30T22:44:25.672Z,85.49
2018-03-30T22:47:11.919Z,85.38
2018-03-30T22:49:59.341Z,85.75
2018-03-30T22:52:45.538Z,85.99
2018-03-30T22:55:31.766Z,86.15
2018-03-30T22:58:18.138Z,86.30
2018-03-30T23:01:04.464Z,86.34
2018-03-30T23:03:51.212Z,86.22
2018-03-30T23:06:38.461Z,86.56
2018-03-30T23:09:24.754Z,86.73
2018-03-30T23:12:11.426Z,86.67
2018-03-30T23:14:57.231Z,86.79
2018-03-30T23:17:44.398Z,86.49
2018-03-30T23:20:30.154Z,86.66
2018-03-30T23:23:16.402Z,86.17
2018-03-30T23:26:02.359Z,86.41
2018-03-30T23:28:48.053Z,86.28
2018-03-30T23:31:34.324Z,86.43
2018-03-30T23:34:20.486Z,86.37
2018-03-30T23:37:06.728Z,86.19
2018-03-30T23:39:52.914Z,86.26
2018-03-30T23:42:39.223Z,86.11
2018-03-30T23:45:25.452Z,86.06
2018-03-30T23:48:11.729Z,85.98
2018-03-30T23:50:57.843Z,85.84
2018-03-30T23:53:44.085Z,85.51
2018-03-30T23:56:30.258Z,85.54
2018-03-30T23:59:16.424Z,85.21
